Time;durP1;ratioP1;P1;durP2;ratioP2;P2;SDS_P1;SDS_P2;PMS_P1;PMS_P2;Temp;Humidity;BMP_temperature;BMP_pressure;BME280_temperature;BME280_humidity;BME280_pressure;Samples;Min_cycle;Max_cycle;Signal;HPM_P1;HPM_P2
2021/10/20 00:00:57;;;;;;;;;;;9.80;52.10;;;;;;4344674;32;20441;-41
2021/10/20 00:03:24;;;;;;;;;;;9.80;52.10;;;;;;4356887;32;20060;-42
2021/10/20 00:05:50;;;;;;;;;;;9.70;52.30;;;;;;4357035;32;19958;-42
2021/10/20 00:08:16;;;;;;;;;;;9.70;52.10;;;;;;4356898;32;20457;-41
2021/10/20 00:10:42;;;;;;;;;;;9.70;52.20;;;;;;4357062;32;19977;-40
2021/10/20 00:13:08;;;;;;;;;;;9.70;52.00;;;;;;4356855;32;19993;-40
2021/10/20 00:15:35;;;;;;;;;;;9.60;51.80;;;;;;4356782;32;19966;-40
2021/10/20 00:18:01;;;;;;;;;;;9.60;51.80;;;;;;4357173;32;20066;-41
2021/10/20 00:20:27;;;;;;;;;;;9.60;51.90;;;;;;4356516;32;20442;-38
2021/10/20 00:22:54;;;;;;;;;;;9.50;51.70;;;;;;4356815;32;20004;-40
2021/10/20 00:25:21;;;;;;;;;;;9.50;51.90;;;;;;4357376;32;20043;-40
2021/10/20 00:27:47;;;;;;;;;;;9.50;51.80;;;;;;4371163;32;19973;-39
2021/10/20 00:30:15;;;;;;;;;;;9.50;51.80;;;;;;4374709;32;20035;-40
2021/10/20 00:32:41;;;;;;;;;;;9.40;51.90;;;;;;4374485;32;20047;-42
2021/10/20 00:35:08;;;;;;;;;;;9.40;52.60;;;;;;4374742;32;19969;-41
2021/10/20 00:37:34;;;;;;;;;;;9.40;52.10;;;;;;4374733;32;20473;-41
2021/10/20 00:40:00;;;;;;;;;;;9.30;52.10;;;;;;4360391;32;20425;-40
2021/10/20 00:42:27;;;;;;;;;;;9.30;52.10;;;;;;4374157;32;20577;-41
2021/10/20 00:44:54;;;;;;;;;;;9.30;52.10;;;;;;4374270;32;19977;-39
2021/10/20 00:47:22;;;;;;;;;;;9.30;52.10;;;;;;4345269;32;19964;-40
2021/10/20 00:49:48;;;;;;;;;;;9.30;52.30;;;;;;4359400;32;20045;-41
2021/10/20 00:52:15;;;;;;;;;;;9.30;52.30;;;;;;4359442;32;19993;-41
2021/10/20 00:54:41;;;;;;;;;;;9.20;52.30;;;;;;4359877;32;19966;-41
2021/10/20 00:57:07;;;;;;;;;;;9.10;52.30;;;;;;4345178;32;20421;-40
2021/10/20 00:59:33;;;;;;;;;;;9.10;52.40;;;;;;4345175;32;20043;-41
2021/10/20 01:02:03;;;;;;;;;;;9.10;52.50;;;;;;4345117;32;19978;-41
2021/10/20 01:04:29;;;;;;;;;;;9.10;52.70;;;;;;4359119;32;19966;-40
2021/10/20 01:06:56;;;;;;;;;;;9.00;52.80;;;;;;4358792;32;19993;-40
2021/10/20 01:09:22;;;;;;;;;;;9.00;52.80;;;;;;4359118;32;19981;-40
2021/10/20 01:11:48;;;;;;;;;;;8.90;53.50;;;;;;4358849;32;20344;-39
2021/10/20 01:14:15;;;;;;;;;;;8.90;52.80;;;;;;4332869;32;20423;-40
2021/10/20 01:16:41;;;;;;;;;;;8.90;52.90;;;;;;4358794;32;20051;-41
2021/10/20 01:19:08;;;;;;;;;;;8.80;52.80;;;;;;4344962;32;20020;-40
2021/10/20 01:21:35;;;;;;;;;;;8.80;52.80;;;;;;4358818;32;20050;-40
2021/10/20 01:24:01;;;;;;;;;;;8.80;52.80;;;;;;4358510;32;19962;-40
2021/10/20 01:26:28;;;;;;;;;;;8.80;52.70;;;;;;4358838;32;20039;-40
2021/10/20 01:28:54;;;;;;;;;;;8.80;52.60;;;;;;4358653;32;19993;-41
2021/10/20 01:31:20;;;;;;;;;;;8.90;52.60;;;;;;4358334;32;19969;-40
2021/10/20 01:33:46;;;;;;;;;;;8.90;52.40;;;;;;4358584;32;20422;-39
2021/10/20 01:36:13;;;;;;;;;;;8.90;52.20;;;;;;4359029;32;19974;-41
2021/10/20 01:38:39;;;;;;;;;;;8.90;52.10;;;;;;4358641;32;20051;-38
2021/10/20 01:41:05;;;;;;;;;;;8.90;52.10;;;;;;4358326;32;20418;-40
2021/10/20 01:43:38;;;;;;;;;;;8.90;52.10;;;;;;4358318;32;19963;-41
2021/10/20 01:46:04;;;;;;;;;;;8.90;52.10;;;;;;4349189;32;19959;-41
2021/10/20 01:48:30;;;;;;;;;;;8.90;52.10;;;;;;4358484;32;19973;-40
2021/10/20 01:50:56;;;;;;;;;;;9.00;52.10;;;;;;4358393;32;20042;-40
2021/10/20 01:53:22;;;;;;;;;;;9.00;52.00;;;;;;4358423;32;19992;-40
2021/10/20 01:55:48;;;;;;;;;;;9.00;52.00;;;;;;4358417;32;19990;-37
2021/10/20 01:58:15;;;;;;;;;;;9.00;52.10;;;;;;4358567;32;20005;-41
2021/10/20 02:00:41;;;;;;;;;;;9.00;52.10;;;;;;4358189;32;20390;-40
2021/10/20 02:03:07;;;;;;;;;;;9.00;52.00;;;;;;4358334;32;20058;-41
2021/10/20 02:05:33;;;;;;;;;;;9.10;51.90;;;;;;4358289;32;19969;-40
2021/10/20 02:08:00;;;;;;;;;;;9.10;51.70;;;;;;4356566;32;19980;-40
2021/10/20 02:10:26;;;;;;;;;;;9.20;51.50;;;;;;4358541;32;19969;-39
2021/10/20 02:12:52;;;;;;;;;;;9.10;51.50;;;;;;4356689;32;20063;-40
2021/10/20 02:15:18;;;;;;;;;;;9.10;51.70;;;;;;4358431;32;20038;-41
2021/10/20 02:17:45;;;;;;;;;;;9.10;51.90;;;;;;4358187;32;20098;-41
2021/10/20 02:20:12;;;;;;;;;;;9.00;52.20;;;;;;4358542;32;19974;-40
2021/10/20 02:22:39;;;;;;;;;;;9.00;52.50;;;;;;4358234;32;19978;-40
2021/10/20 02:25:06;;;;;;;;;;;9.00;52.60;;;;;;4358288;32;20054;-40
2021/10/20 02:27:33;;;;;;;;;;;9.00;52.50;;;;;;4358466;32;19990;-40
2021/10/20 02:29:59;;;;;;;;;;;9.10;52.50;;;;;;4358263;32;19998;-40
2021/10/20 02:32:26;;;;;;;;;;;9.10;52.40;;;;;;4357988;32;19966;-39
2021/10/20 02:34:52;;;;;;;;;;;9.10;52.40;;;;;;4358187;32;19993;-39
2021/10/20 02:37:18;;;;;;;;;;;9.10;52.60;;;;;;4358598;32;20043;-40
2021/10/20 02:39:44;;;;;;;;;;;9.10;52.80;;;;;;4358094;32;20059;-40
2021/10/20 02:42:10;;;;;;;;;;;9.00;52.80;;;;;;4357853;32;20052;-40
2021/10/20 02:44:37;;;;;;;;;;;9.00;53.00;;;;;;4360931;32;20037;-40
2021/10/20 02:47:03;;;;;;;;;;;9.00;53.10;;;;;;4360313;32;19966;-40
2021/10/20 02:49:29;;;;;;;;;;;9.00;53.00;;;;;;4347242;32;19969;-41
2021/10/20 02:51:55;;;;;;;;;;;9.00;52.70;;;;;;4360765;32;19973;-40
2021/10/20 02:54:22;;;;;;;;;;;9.10;52.60;;;;;;4361335;32;19982;-40
2021/10/20 02:56:48;;;;;;;;;;;9.10;52.40;;;;;;4361056;32;20074;-41
2021/10/20 02:59:15;;;;;;;;;;;9.10;52.30;;;;;;4360840;32;19971;-41
2021/10/20 03:01:41;;;;;;;;;;;9.00;52.30;;;;;;4360816;32;20010;-40
2021/10/20 03:04:07;;;;;;;;;;;8.90;52.50;;;;;;4360769;32;19966;-40
2021/10/20 03:06:34;;;;;;;;;;;8.90;52.70;;;;;;4360582;32;20051;-40
2021/10/20 03:09:00;;;;;;;;;;;8.80;52.80;;;;;;4360766;32;20004;-40
2021/10/20 03:11:26;;;;;;;;;;;8.80;53.00;;;;;;4360412;32;20064;-39
2021/10/20 03:13:52;;;;;;;;;;;8.70;53.20;;;;;;4360250;32;20518;-40
2021/10/20 03:16:18;;;;;;;;;;;8.70;53.50;;;;;;4360664;32;20407;-40
2021/10/20 03:18:45;;;;;;;;;;;8.70;53.70;;;;;;4360555;32;19971;-40
2021/10/20 03:21:11;;;;;;;;;;;8.70;53.70;;;;;;4360604;32;19986;-40
2021/10/20 03:23:37;;;;;;;;;;;8.70;53.70;;;;;;4360257;32;19963;-41
2021/10/20 03:26:03;;;;;;;;;;;8.80;53.60;;;;;;4360235;32;19966;-40
2021/10/20 03:28:30;;;;;;;;;;;8.80;53.50;;;;;;4359865;32;19978;-40
2021/10/20 03:30:56;;;;;;;;;;;8.90;53.20;;;;;;4360083;32;20024;-40
2021/10/20 03:33:22;;;;;;;;;;;9.00;53.10;;;;;;4360346;32;19966;-40
2021/10/20 03:35:48;;;;;;;;;;;9.10;52.90;;;;;;4360272;32;20348;-40
2021/10/20 03:38:15;;;;;;;;;;;9.10;52.70;;;;;;4360284;32;19998;-41
2021/10/20 03:40:41;;;;;;;;;;;9.10;52.60;;;;;;4360122;32;19997;-41
2021/10/20 03:43:07;;;;;;;;;;;9.10;52.60;;;;;;4359833;32;20110;-41
2021/10/20 03:45:33;;;;;;;;;;;9.10;52.80;;;;;;4363905;32;19970;-41
2021/10/20 03:48:00;;;;;;;;;;;9.10;53.00;;;;;;4374888;32;20476;-39
2021/10/20 03:50:26;;;;;;;;;;;9.10;53.10;;;;;;4374646;32;20435;-38
2021/10/20 03:52:52;;;;;;;;;;;9.10;53.10;;;;;;4375165;32;20052;-42
2021/10/20 03:55:18;;;;;;;;;;;9.10;53.10;;;;;;4374230;32;20374;-41
2021/10/20 03:57:44;;;;;;;;;;;9.10;53.00;;;;;;4374811;32;20347;-40
2021/10/20 04:00:12;;;;;;;;;;;9.10;53.10;;;;;;4374573;32;19964;-40
2021/10/20 04:02:44;;;;;;;;;;;9.10;53.10;;;;;;4375085;32;20045;-40
2021/10/20 04:05:15;;;;;;;;;;;9.10;53.20;;;;;;4374866;32;20444;-41
2021/10/20 04:07:41;;;;;;;;;;;9.10;53.20;;;;;;4374575;32;19982;-41
2021/10/20 04:10:10;;;;;;;;;;;9.20;53.10;;;;;;4374514;32;19973;-41
2021/10/20 04:12:37;;;;;;;;;;;9.20;52.90;;;;;;4360464;32;19997;-40
2021/10/20 04:15:03;;;;;;;;;;;9.30;52.90;;;;;;4374528;32;19980;-40
2021/10/20 04:17:32;;;;;;;;;;;9.40;52.80;;;;;;4374587;32;19982;-41
2021/10/20 04:19:58;;;;;;;;;;;9.40;52.70;;;;;;4374632;32;19961;-41
2021/10/20 04:22:25;;;;;;;;;;;9.40;52.70;;;;;;4374737;32;19970;-40
2021/10/20 04:24:51;;;;;;;;;;;9.40;52.60;;;;;;4374070;32;20057;-41
2021/10/20 04:27:17;;;;;;;;;;;9.40;52.60;;;;;;4374399;32;20617;-41
2021/10/20 04:29:43;;;;;;;;;;;9.40;52.60;;;;;;4374128;32;20041;-40
2021/10/20 04:32:10;;;;;;;;;;;9.30;52.80;;;;;;4374497;32;19982;-41
2021/10/20 04:34:36;;;;;;;;;;;9.30;52.80;;;;;;4374070;32;19962;-42
2021/10/20 04:37:02;;;;;;;;;;;9.30;53.10;;;;;;4374056;32;19977;-41
2021/10/20 04:39:29;;;;;;;;;;;9.30;53.00;;;;;;4374112;32;19966;-40
2021/10/20 04:41:55;;;;;;;;;;;9.40;53.00;;;;;;4374256;32;20386;-42
2021/10/20 04:44:21;;;;;;;;;;;9.50;53.00;;;;;;4374108;32;20046;-42
2021/10/20 04:46:47;;;;;;;;;;;9.50;52.80;;;;;;4362461;32;19986;-41
2021/10/20 04:49:13;;;;;;;;;;;9.60;52.70;;;;;;4359414;32;19954;-42
2021/10/20 04:51:39;;;;;;;;;;;9.60;52.60;;;;;;4359138;32;19981;-41
2021/10/20 04:54:06;;;;;;;;;;;9.70;52.50;;;;;;4358598;32;20486;-42
2021/10/20 04:56:32;;;;;;;;;;;9.70;52.30;;;;;;4359251;32;19981;-42
2021/10/20 04:58:58;;;;;;;;;;;9.80;52.30;;;;;;4359249;32;20022;-42
2021/10/20 05:01:24;;;;;;;;;;;9.90;52.20;;;;;;4345660;32;19981;-42
2021/10/20 05:03:50;;;;;;;;;;;10.00;52.10;;;;;;4359205;32;19958;-38
2021/10/20 05:06:17;;;;;;;;;;;10.10;52.00;;;;;;4358760;32;19959;-42
2021/10/20 05:08:43;;;;;;;;;;;10.20;51.70;;;;;;4358837;32;20067;-45
2021/10/20 05:11:09;;;;;;;;;;;10.20;51.40;;;;;;4358992;32;20029;-43
2021/10/20 05:13:35;;;;;;;;;;;10.30;51.30;;;;;;4358499;32;19966;-42
2021/10/20 05:16:01;;;;;;;;;;;10.30;51.20;;;;;;4358845;32;19963;-39
2021/10/20 05:18:27;;;;;;;;;;;10.30;51.30;;;;;;4358912;32;19978;-41
2021/10/20 05:20:54;;;;;;;;;;;10.30;51.50;;;;;;4358389;32;20047;-41
2021/10/20 05:23:20;;;;;;;;;;;10.20;51.70;;;;;;4358518;32;20203;-41
2021/10/20 05:25:46;;;;;;;;;;;10.10;52.00;;;;;;4358746;32;20046;-41
2021/10/20 05:28:13;;;;;;;;;;;10.10;52.30;;;;;;4359088;32;20215;-41
2021/10/20 05:30:39;;;;;;;;;;;10.00;52.50;;;;;;4358904;32;19970;-41
2021/10/20 05:33:05;;;;;;;;;;;10.00;52.60;;;;;;4358328;32;20001;-41
2021/10/20 05:35:31;;;;;;;;;;;10.00;52.80;;;;;;4358385;32;20053;-38
2021/10/20 05:37:57;;;;;;;;;;;10.00;52.80;;;;;;4358834;32;19982;-41
2021/10/20 05:40:24;;;;;;;;;;;10.10;52.80;;;;;;4358697;32;19981;-40
2021/10/20 05:42:50;;;;;;;;;;;10.20;52.60;;;;;;4358440;32;20418;-40
2021/10/20 05:45:17;;;;;;;;;;;10.20;52.50;;;;;;4360622;32;19970;-40
2021/10/20 05:47:43;;;;;;;;;;;10.20;52.40;;;;;;4373304;32;20061;-39
2021/10/20 05:50:09;;;;;;;;;;;10.30;53.10;;;;;;4373734;32;19989;-41
2021/10/20 05:52:35;;;;;;;;;;;10.40;52.30;;;;;;4373254;32;19962;-39
2021/10/20 05:55:02;;;;;;;;;;;10.40;51.10;;;;;;4373211;32;19978;-40
2021/10/20 05:57:28;;;;;;;;;;;10.40;51.00;;;;;;4373955;32;19965;-43
2021/10/20 05:59:55;;;;;;;;;;;10.20;50.40;;;;;;4372971;32;19966;-42
2021/10/20 06:02:21;;;;;;;;;;;10.20;50.70;;;;;;4373446;32;19977;-42
2021/10/20 06:04:47;;;;;;;;;;;10.20;50.50;;;;;;4373101;32;19969;-39
2021/10/20 06:07:14;;;;;;;;;;;10.20;50.40;;;;;;4373583;32;20566;-41
2021/10/20 06:09:40;;;;;;;;;;;10.10;50.40;;;;;;4372928;32;19959;-40
2021/10/20 06:12:07;;;;;;;;;;;10.10;50.60;;;;;;4372867;32;19962;-41
2021/10/20 06:14:33;;;;;;;;;;;10.10;50.80;;;;;;4373578;32;20072;-41
2021/10/20 06:16:59;;;;;;;;;;;10.10;50.80;;;;;;4373434;32;19997;-40
2021/10/20 06:19:25;;;;;;;;;;;10.10;50.40;;;;;;4375426;32;19966;-40
2021/10/20 06:21:52;;;;;;;;;;;10.10;50.50;;;;;;4375568;32;19974;-42
2021/10/20 06:24:19;;;;;;;;;;;10.10;50.70;;;;;;4376202;32;20073;-40
2021/10/20 06:26:45;;;;;;;;;;;10.10;50.70;;;;;;4376205;32;20070;-40
2021/10/20 06:29:11;;;;;;;;;;;10.20;50.50;;;;;;4376322;32;19966;-40
2021/10/20 06:31:37;;;;;;;;;;;10.30;50.50;;;;;;4376012;32;19970;-38
2021/10/20 06:34:04;;;;;;;;;;;10.40;50.60;;;;;;4375949;32;19973;-40
2021/10/20 06:36:31;;;;;;;;;;;10.60;50.40;;;;;;4375906;32;20518;-40
2021/10/20 06:38:58;;;;;;;;;;;10.80;50.20;;;;;;4375575;32;19976;-40
2021/10/20 06:41:25;;;;;;;;;;;10.90;50.00;;;;;;4375455;32;19992;-40
2021/10/20 06:43:51;;;;;;;;;;;11.10;49.90;;;;;;4375770;32;19969;-45
2021/10/20 06:46:18;;;;;;;;;;;11.10;49.00;;;;;;4352900;32;20533;-41
2021/10/20 06:48:44;;;;;;;;;;;11.20;49.10;;;;;;4361147;32;20469;-40
2021/10/20 06:51:10;;;;;;;;;;;11.30;48.80;;;;;;4360922;32;20363;-41
2021/10/20 06:53:37;;;;;;;;;;;11.20;48.30;;;;;;4360958;32;19978;-39
2021/10/20 06:56:03;;;;;;;;;;;11.20;48.00;;;;;;4361264;32;20049;-42
2021/10/20 06:58:30;;;;;;;;;;;11.10;47.40;;;;;;4360721;32;20024;-41
2021/10/20 07:00:56;;;;;;;;;;;11.00;46.80;;;;;;4360627;32;19998;-41
2021/10/20 07:03:22;;;;;;;;;;;10.90;47.00;;;;;;4360270;32;19958;-42
2021/10/20 07:05:48;;;;;;;;;;;10.80;47.40;;;;;;4360423;32;19982;-41
2021/10/20 07:08:14;;;;;;;;;;;10.80;47.30;;;;;;4360541;32;19974;-42
2021/10/20 07:10:41;;;;;;;;;;;10.80;47.10;;;;;;4360765;32;20037;-42
2021/10/20 07:13:07;;;;;;;;;;;10.90;47.00;;;;;;4360575;32;19962;-40
2021/10/20 07:15:33;;;;;;;;;;;10.80;46.60;;;;;;4360558;32;20085;-42
2021/10/20 07:17:59;;;;;;;;;;;10.80;46.00;;;;;;4346720;32;19973;-41
2021/10/20 07:20:26;;;;;;;;;;;10.80;46.20;;;;;;4360367;32;19981;-41
2021/10/20 07:22:52;;;;;;;;;;;10.80;46.40;;;;;;4360035;32;20117;-41
2021/10/20 07:25:18;;;;;;;;;;;10.90;46.40;;;;;;4360716;32;19977;-42
2021/10/20 07:27:48;;;;;;;;;;;11.10;46.40;;;;;;4360220;32;20043;-41
2021/10/20 07:30:14;;;;;;;;;;;11.30;46.30;;;;;;4359282;32;19962;-40
2021/10/20 07:32:41;;;;;;;;;;;11.50;46.00;;;;;;4359897;32;20363;-41
2021/10/20 07:35:14;;;;;;;;;;;11.60;45.90;;;;;;4346375;32;19974;-41
2021/10/20 07:37:41;;;;;;;;;;;11.80;45.80;;;;;;4360180;32;20411;-41
2021/10/20 07:40:08;;;;;;;;;;;11.90;45.80;;;;;;4360171;32;20444;-41
2021/10/20 07:42:37;;;;;;;;;;;12.00;45.40;;;;;;4360468;32;19970;-41
2021/10/20 07:45:07;;;;;;;;;;;12.10;45.40;;;;;;4360543;32;20450;-40
2021/10/20 07:47:34;;;;;;;;;;;12.20;45.00;;;;;;4374846;32;20398;-40
2021/10/20 07:50:00;;;;;;;;;;;12.30;45.00;;;;;;4374604;32;20000;-41
2021/10/20 07:52:28;;;;;;;;;;;12.40;43.80;;;;;;4375020;32;20481;-41
2021/10/20 07:54:57;;;;;;;;;;;12.40;43.10;;;;;;4374568;32;19972;-40
2021/10/20 07:57:23;;;;;;;;;;;12.30;42.40;;;;;;4374902;32;19973;-41
2021/10/20 07:59:49;;;;;;;;;;;12.30;42.70;;;;;;4374570;32;19970;-41
2021/10/20 08:02:16;;;;;;;;;;;12.20;42.40;;;;;;4374338;32;19961;-41
2021/10/20 08:04:42;;;;;;;;;;;11.90;42.80;;;;;;4374915;32;20083;-39
2021/10/20 08:07:08;;;;;;;;;;;11.60;42.70;;;;;;4375098;32;19966;-42
2021/10/20 08:09:34;;;;;;;;;;;11.40;43.30;;;;;;4374530;32;20133;-41
2021/10/20 08:12:00;;;;;;;;;;;11.20;43.20;;;;;;4374333;32;20004;-40
2021/10/20 08:14:29;;;;;;;;;;;11.10;43.70;;;;;;4374369;32;19970;-40
2021/10/20 08:16:56;;;;;;;;;;;11.20;43.60;;;;;;4374031;32;20445;-42
2021/10/20 08:19:22;;;;;;;;;;;11.10;43.30;;;;;;4374037;32;20374;-40
2021/10/20 08:21:48;;;;;;;;;;;11.00;43.40;;;;;;4373677;32;19970;-41
2021/10/20 08:24:14;;;;;;;;;;;10.80;42.90;;;;;;4374198;32;19982;-41
2021/10/20 08:26:40;;;;;;;;;;;10.70;43.50;;;;;;4374236;32;19966;-42
2021/10/20 08:29:08;;;;;;;;;;;10.70;42.90;;;;;;4374130;32;19970;-41
2021/10/20 08:31:34;;;;;;;;;;;10.80;43.40;;;;;;4374441;32;20426;-44
2021/10/20 08:34:00;;;;;;;;;;;10.90;42.70;;;;;;4373878;32;19974;-41
2021/10/20 08:36:26;;;;;;;;;;;10.90;42.80;;;;;;4374033;32;20560;-43
2021/10/20 08:38:52;;;;;;;;;;;11.10;43.00;;;;;;4374284;32;20155;-41
2021/10/20 08:41:19;;;;;;;;;;;11.30;43.20;;;;;;4373859;32;20404;-44
2021/10/20 08:43:46;;;;;;;;;;;11.50;43.30;;;;;;4374531;32;19954;-41
2021/10/20 08:46:12;;;;;;;;;;;11.80;43.50;;;;;;4340306;32;20049;-39
2021/10/20 08:48:38;;;;;;;;;;;12.10;43.60;;;;;;4359504;32;19962;-41
2021/10/20 08:51:05;;;;;;;;;;;12.30;43.00;;;;;;4328924;33;20041;-40
2021/10/20 08:53:31;;;;;;;;;;;12.50;42.70;;;;;;4342034;33;19982;-40
2021/10/20 08:55:59;;;;;;;;;;;12.70;42.70;;;;;;4341785;33;19966;-40
2021/10/20 08:58:26;;;;;;;;;;;12.90;42.40;;;;;;4341957;33;20057;-40
2021/10/20 09:00:52;;;;;;;;;;;13.00;42.20;;;;;;4341952;33;19986;-39
2021/10/20 09:03:18;;;;;;;;;;;13.20;42.20;;;;;;4341134;33;19959;-40
2021/10/20 09:05:44;;;;;;;;;;;13.30;42.00;;;;;;4341463;33;20085;-40
2021/10/20 09:08:10;;;;;;;;;;;13.40;41.60;;;;;;4341566;33;19982;-40
2021/10/20 09:10:37;;;;;;;;;;;13.40;41.70;;;;;;4341603;33;19975;-39
2021/10/20 09:13:03;;;;;;;;;;;13.60;41.90;;;;;;4341212;33;20442;-40
2021/10/20 09:15:34;;;;;;;;;;;13.70;41.60;;;;;;4341655;33;20006;-39
2021/10/20 09:18:03;;;;;;;;;;;14.00;41.10;;;;;;4341645;33;19975;-39
2021/10/20 09:20:44;;;;;;;;;;;14.00;39.60;;;;;;4341420;33;19990;-39
2021/10/20 09:23:12;;;;;;;;;;;13.90;39.70;;;;;;4341472;33;19978;-39
2021/10/20 09:25:47;;;;;;;;;;;13.90;39.70;;;;;;4341485;33;19970;-40
2021/10/20 09:28:19;;;;;;;;;;;13.80;40.00;;;;;;4347923;32;20418;-40
2021/10/20 09:30:46;;;;;;;;;;;13.80;40.00;;;;;;4314446;33;21329;-39
2021/10/20 09:33:12;;;;;;;;;;;13.80;39.90;;;;;;4314459;33;20023;-41
2021/10/20 09:35:38;;;;;;;;;;;13.80;40.10;;;;;;4326269;33;19974;-39
2021/10/20 09:38:05;;;;;;;;;;;13.90;40.40;;;;;;4326734;33;19999;-39
2021/10/20 09:40:45;;;;;;;;;;;13.90;40.30;;;;;;4326178;33;20083;-39
2021/10/20 09:43:20;;;;;;;;;;;13.90;41.20;;;;;;4326788;33;19959;-40
2021/10/20 09:45:47;;;;;;;;;;;14.00;40.70;;;;;;4331686;33;19969;-39
2021/10/20 09:48:18;;;;;;;;;;;14.00;40.60;;;;;;4341722;33;20531;-38
2021/10/20 09:50:55;;;;;;;;;;;14.00;40.60;;;;;;4341271;33;19990;-40
2021/10/20 09:53:21;;;;;;;;;;;14.00;40.80;;;;;;4340840;33;19978;-39
2021/10/20 09:55:47;;;;;;;;;;;14.00;40.60;;;;;;4340733;33;20412;-37
2021/10/20 09:58:14;;;;;;;;;;;14.00;40.70;;;;;;4340746;33;20063;-40
2021/10/20 10:00:41;;;;;;;;;;;13.90;40.50;;;;;;4341691;32;20364;-40
2021/10/20 10:03:08;;;;;;;;;;;13.80;40.60;;;;;;4373025;32;19970;-38
2021/10/20 10:05:35;;;;;;;;;;;13.80;40.60;;;;;;4359505;32;20012;-40
2021/10/20 10:08:01;;;;;;;;;;;13.80;40.60;;;;;;4373093;32;20046;-39
2021/10/20 10:10:27;;;;;;;;;;;13.80;40.40;;;;;;4373171;32;19970;-39
2021/10/20 10:12:56;;;;;;;;;;;13.70;40.40;;;;;;4372801;32;19962;-40
2021/10/20 10:15:22;;;;;;;;;;;13.70;40.40;;;;;;4313676;33;19981;-39
2021/10/20 10:17:52;;;;;;;;;;;13.70;40.20;;;;;;4313860;33;20032;-39
2021/10/20 10:20:19;;;;;;;;;;;13.70;39.80;;;;;;4326434;33;19971;-40
2021/10/20 10:22:55;;;;;;;;;;;13.70;39.90;;;;;;4326173;33;19982;-39
2021/10/20 10:25:32;;;;;;;;;;;13.70;40.00;;;;;;4325893;33;19971;-41
2021/10/20 10:28:08;;;;;;;;;;;13.70;39.90;;;;;;4325561;33;20407;-40
2021/10/20 10:30:50;;;;;;;;;;;13.70;39.80;;;;;;4326259;33;20033;-40
2021/10/20 10:33:27;;;;;;;;;;;13.60;39.50;;;;;;4326110;33;19986;-39
2021/10/20 10:36:22;;;;;;;;;;;13.50;39.60;;;;;;4325936;33;20054;-40
2021/10/20 10:38:50;;;;;;;;;;;13.50;40.00;;;;;;4324557;33;19987;-38
2021/10/20 10:41:20;;;;;;;;;;;13.50;39.70;;;;;;4325904;33;19963;-41
2021/10/20 10:44:05;;;;;;;;;;;13.50;39.30;;;;;;4326119;33;20465;-41
2021/10/20 10:46:31;;;;;;;;;;;13.40;39.30;;;;;;4341134;32;20406;-39
2021/10/20 10:48:58;;;;;;;;;;;13.30;39.50;;;;;;4357517;32;19994;-40
2021/10/20 10:51:24;;;;;;;;;;;13.30;39.60;;;;;;4343388;32;19963;-39
2021/10/20 10:53:55;;;;;;;;;;;13.30;39.50;;;;;;4357226;32;20374;-39
2021/10/20 10:56:21;;;;;;;;;;;13.30;39.30;;;;;;4357510;32;19982;-40
2021/10/20 10:59:04;;;;;;;;;;;13.10;39.60;;;;;;4357810;32;20378;-39
2021/10/20 11:01:47;;;;;;;;;;;13.10;39.70;;;;;;4357498;32;20493;-38
2021/10/20 11:04:20;;;;;;;;;;;13.10;39.10;;;;;;4358117;32;20038;-40
2021/10/20 11:06:48;;;;;;;;;;;13.10;38.90;;;;;;4360398;32;20049;-39
2021/10/20 11:09:21;;;;;;;;;;;13.10;38.90;;;;;;4359973;32;19963;-39
2021/10/20 11:11:48;;;;;;;;;;;13.10;38.80;;;;;;4346203;32;19966;-38
2021/10/20 11:14:15;;;;;;;;;;;13.10;38.80;;;;;;4359995;32;19986;-40
2021/10/20 11:16:45;;;;;;;;;;;13.10;38.90;;;;;;4359759;32;20402;-40
2021/10/20 11:19:12;;;;;;;;;;;13.10;38.50;;;;;;4359773;32;19966;-40
2021/10/20 11:21:38;;;;;;;;;;;13.00;38.10;;;;;;4360248;32;20050;-39
2021/10/20 11:24:06;;;;;;;;;;;12.80;38.30;;;;;;4359977;32;19954;-41
2021/10/20 11:26:33;;;;;;;;;;;12.70;38.30;;;;;;4360307;32;20014;-39
2021/10/20 11:29:07;;;;;;;;;;;12.60;38.20;;;;;;4346131;32;19982;-40
2021/10/20 11:31:37;;;;;;;;;;;12.60;38.40;;;;;;4360438;32;20012;-41
2021/10/20 11:34:17;;;;;;;;;;;12.70;38.50;;;;;;4360207;32;19994;-40
2021/10/20 11:36:44;;;;;;;;;;;12.80;38.30;;;;;;4360147;32;19966;-40
2021/10/20 11:39:10;;;;;;;;;;;12.80;38.10;;;;;;4360018;32;19974;-39
2021/10/20 11:41:38;;;;;;;;;;;12.90;37.90;;;;;;4360423;32;20402;-40
2021/10/20 11:44:04;;;;;;;;;;;13.00;37.90;;;;;;4359976;32;19982;-39
2021/10/20 11:46:32;;;;;;;;;;;13.00;37.50;;;;;;4369954;32;20062;-40
2021/10/20 11:49:00;;;;;;;;;;;13.10;37.40;;;;;;4361212;32;20073;-41
2021/10/20 11:51:26;;;;;;;;;;;13.10;37.00;;;;;;4375250;32;20389;-42
2021/10/20 11:53:52;;;;;;;;;;;13.10;36.10;;;;;;4374789;32;19964;-40
2021/10/20 11:56:18;;;;;;;;;;;13.00;36.80;;;;;;4374595;32;20038;-40
2021/10/20 11:58:46;;;;;;;;;;;13.00;36.50;;;;;;4374581;32;20063;-41
2021/10/20 12:01:12;;;;;;;;;;;13.00;36.80;;;;;;4374669;32;20508;-40
2021/10/20 12:03:40;;;;;;;;;;;13.00;37.00;;;;;;4374689;32;19996;-41
2021/10/20 12:06:08;;;;;;;;;;;13.00;36.80;;;;;;4374520;32;19970;-41
2021/10/20 12:08:45;;;;;;;;;;;13.00;36.90;;;;;;4375051;32;20305;-41
2021/10/20 12:11:15;;;;;;;;;;;13.10;36.60;;;;;;4350105;32;19970;-41
2021/10/20 12:13:41;;;;;;;;;;;13.10;36.60;;;;;;4374701;32;19974;-42
2021/10/20 12:16:08;;;;;;;;;;;13.10;36.50;;;;;;4373766;32;19977;-41
2021/10/20 12:18:37;;;;;;;;;;;13.20;36.70;;;;;;4374521;32;19958;-41
2021/10/20 12:21:06;;;;;;;;;;;13.20;36.60;;;;;;4374774;32;20005;-40
2021/10/20 12:23:33;;;;;;;;;;;13.30;35.10;;;;;;4348240;32;19974;-41
2021/10/20 12:26:02;;;;;;;;;;;13.30;35.20;;;;;;4374583;32;19992;-41
2021/10/20 12:28:29;;;;;;;;;;;13.20;35.00;;;;;;4374185;32;20042;-40
2021/10/20 12:30:55;;;;;;;;;;;13.20;34.80;;;;;;4374516;32;20016;-40
2021/10/20 12:33:22;;;;;;;;;;;13.20;34.70;;;;;;4374227;32;20053;-40
2021/10/20 12:35:49;;;;;;;;;;;13.10;34.80;;;;;;4374017;32;20395;-41
2021/10/20 12:38:16;;;;;;;;;;;13.10;35.00;;;;;;4360632;32;20005;-41
2021/10/20 12:40:45;;;;;;;;;;;13.20;35.20;;;;;;4348364;32;19970;-41
2021/10/20 12:43:15;;;;;;;;;;;13.20;35.10;;;;;;4374420;32;19981;-40
2021/10/20 12:45:41;;;;;;;;;;;13.10;34.70;;;;;;4369360;32;20377;-40
2021/10/20 12:48:09;;;;;;;;;;;13.10;35.10;;;;;;4359109;32;19978;-40
2021/10/20 12:50:37;;;;;;;;;;;13.10;35.20;;;;;;4359253;32;19967;-41
2021/10/20 12:53:12;;;;;;;;;;;13.10;35.40;;;;;;4358679;32;20373;-40
2021/10/20 12:55:40;;;;;;;;;;;13.20;35.40;;;;;;4358817;32;19978;-40
2021/10/20 12:58:17;;;;;;;;;;;13.20;35.50;;;;;;4358734;32;19959;-41
2021/10/20 13:00:43;;;;;;;;;;;13.20;35.40;;;;;;4358666;32;19981;-40
2021/10/20 13:03:10;;;;;;;;;;;13.10;35.40;;;;;;4345394;32;19974;-41
2021/10/20 13:05:36;;;;;;;;;;;13.10;35.30;;;;;;4359069;32;19968;-40
2021/10/20 13:08:03;;;;;;;;;;;13.00;35.50;;;;;;4358930;32;20142;-40
2021/10/20 13:10:29;;;;;;;;;;;12.90;35.70;;;;;;4358851;32;19962;-40
2021/10/20 13:12:59;;;;;;;;;;;12.80;35.90;;;;;;4359194;32;19978;-41
2021/10/20 13:15:28;;;;;;;;;;;12.80;36.00;;;;;;4358893;32;20385;-41
2021/10/20 13:17:56;;;;;;;;;;;12.70;35.90;;;;;;4358734;32;19975;-41
2021/10/20 13:20:22;;;;;;;;;;;12.60;36.20;;;;;;4358607;32;20059;-40
2021/10/20 13:22:48;;;;;;;;;;;12.60;36.40;;;;;;4358511;32;20004;-40
2021/10/20 13:25:15;;;;;;;;;;;12.70;36.40;;;;;;4358293;32;20531;-42
2021/10/20 13:27:41;;;;;;;;;;;12.70;36.40;;;;;;4358348;32;19966;-40
2021/10/20 13:30:09;;;;;;;;;;;12.80;36.40;;;;;;4358137;32;19986;-40
2021/10/20 13:32:36;;;;;;;;;;;12.90;36.30;;;;;;4358294;32;19989;-41
2021/10/20 13:35:02;;;;;;;;;;;12.90;36.30;;;;;;4344440;32;19967;-40
2021/10/20 13:37:30;;;;;;;;;;;13.00;36.30;;;;;;4358283;32;20126;-40
2021/10/20 13:39:57;;;;;;;;;;;13.00;36.30;;;;;;4358791;32;19999;-41
2021/10/20 13:42:23;;;;;;;;;;;13.00;36.10;;;;;;4358030;32;19962;-40
2021/10/20 13:44:49;;;;;;;;;;;13.00;36.10;;;;;;4358497;32;20006;-41
2021/10/20 13:47:16;;;;;;;;;;;13.00;36.10;;;;;;4344326;32;19966;-40
2021/10/20 13:49:42;;;;;;;;;;;12.90;36.20;;;;;;4358377;32;19958;-41
2021/10/20 13:52:09;;;;;;;;;;;12.80;36.20;;;;;;4358346;32;20085;-40
2021/10/20 13:54:35;;;;;;;;;;;12.80;36.40;;;;;;4358303;32;19970;-41
2021/10/20 13:57:01;;;;;;;;;;;12.70;36.40;;;;;;4358356;32;20560;-41
2021/10/20 13:59:27;;;;;;;;;;;12.60;37.00;;;;;;4358395;32;19974;-40
2021/10/20 14:01:54;;;;;;;;;;;12.60;36.30;;;;;;4344261;32;19978;-41
2021/10/20 14:04:24;;;;;;;;;;;12.50;36.10;;;;;;4358201;32;20001;-40
2021/10/20 14:06:54;;;;;;;;;;;12.50;36.20;;;;;;4358554;32;20439;-40
2021/10/20 14:09:22;;;;;;;;;;;12.30;36.30;;;;;;4358214;32;20447;-40
2021/10/20 14:11:48;;;;;;;;;;;12.20;36.30;;;;;;4358095;32;19974;-41
2021/10/20 14:14:14;;;;;;;;;;;12.10;36.50;;;;;;4357887;32;19977;-41
2021/10/20 14:16:41;;;;;;;;;;;12.10;36.70;;;;;;4358147;32;20507;-41
2021/10/20 14:19:07;;;;;;;;;;;12.00;36.80;;;;;;4358093;32;19965;-41
2021/10/20 14:21:33;;;;;;;;;;;12.00;36.70;;;;;;4357920;32;20470;-41